Metar z pełnej godziny Komunikat METAR ze strony awiacja.imgw.pl Metar G00 EPLB METAR EPLB 261100Z 28018KT 9999 DRSN FEW017 BKN020 OVC048 01/M02 Q1004 R25/599591 =